Time;durP1;ratioP1;P1;durP2;ratioP2;P2;SDS_P1;SDS_P2;PMS_P1;PMS_P2;Temp;Humidity;BMP_temperature;BMP_pressure;BME280_temperature;BME280_humidity;BME280_pressure;Samples;Min_cycle;Max_cycle;Signal;HPM_P1;HPM_P2
2021/01/21 00:02:23;;;;;;;27.42;13.95;;;;;;;-3.81;61.71;100960.23;1779239;79;21200;-65
2021/01/21 00:04:51;;;;;;;25.23;13.90;;;;;;;-3.74;61.64;100964.43;1717307;83;21165;-66
2021/01/21 00:07:18;;;;;;;26.55;14.00;;;;;;;-3.70;61.45;100955.80;1725283;82;21401;-65
2021/01/21 00:09:46;;;;;;;24.82;14.47;;;;;;;-3.69;61.45;100951.53;1728913;82;21200;-65
2021/01/21 00:12:14;;;;;;;25.88;14.33;;;;;;;-3.71;61.40;100957.97;1713154;82;21634;-65
2021/01/21 00:14:42;;;;;;;27.00;13.43;;;;;;;-3.72;61.39;100942.55;1722317;82;21476;-65
2021/01/21 00:17:10;;;;;;;21.40;13.72;;;;;;;-3.74;61.40;100940.00;1745223;81;21117;-67
2021/01/21 00:19:37;;;;;;;27.42;14.73;;;;;;;-3.79;61.48;100931.05;1725041;82;21627;-66
2021/01/21 00:22:05;;;;;;;21.70;13.78;;;;;;;-3.84;61.43;100937.12;1727760;81;21202;-67
2021/01/21 00:24:32;;;;;;;28.85;14.13;;;;;;;-3.89;61.49;100928.62;1689987;82;21141;-66
2021/01/21 00:27:00;;;;;;;23.35;12.75;;;;;;;-3.95;61.68;100929.52;1729851;82;21220;-66
2021/01/21 00:29:27;;;;;;;20.23;12.63;;;;;;;-3.95;61.77;100940.67;1725137;82;21165;-68
2021/01/21 00:31:55;;;;;;;25.57;13.35;;;;;;;-3.96;61.82;100936.39;1723146;82;21374;-66
2021/01/21 00:34:24;;;;;;;19.50;12.70;;;;;;;-3.98;61.90;100937.30;1740045;81;21569;-68
2021/01/21 00:36:52;;;;;;;31.62;14.63;;;;;;;-3.97;61.94;100938.56;1723116;82;21129;-66
2021/01/21 00:39:19;;;;;;;23.27;13.35;;;;;;;-3.95;61.92;100936.81;1745667;81;21176;-65
2021/01/21 00:41:48;;;;;;;26.07;14.25;;;;;;;-3.93;61.86;100927.80;1749812;81;21122;-66
2021/01/21 00:44:16;;;;;;;27.02;15.80;;;;;;;-3.91;61.95;100932.48;1722744;82;21414;-66
2021/01/21 00:46:44;;;;;;;21.93;12.82;;;;;;;-3.91;61.93;100933.77;1726390;82;21213;-66
2021/01/21 00:49:13;;;;;;;25.62;15.08;;;;;;;-3.90;61.88;100935.91;1694259;82;21189;-65
2021/01/21 00:51:41;;;;;;;33.83;16.35;;;;;;;-3.89;61.88;100935.05;1733379;82;21224;-66
2021/01/21 00:54:09;;;;;;;22.05;12.55;;;;;;;-3.89;61.94;100929.91;1728720;82;21221;-66
2021/01/21 00:56:37;;;;;;;24.80;13.50;;;;;;;-3.87;61.96;100928.16;1708722;82;21308;-66
2021/01/21 00:59:05;;;;;;;26.37;14.10;;;;;;;-3.86;61.97;100919.59;1736249;82;21125;-65
2021/01/21 01:01:32;;;;;;;21.02;12.53;;;;;;;-3.81;61.92;100912.67;1735150;82;21121;-66
2021/01/21 01:04:02;;;;;;;26.35;13.95;;;;;;;-3.78;61.80;100924.20;1695540;82;21173;-65
2021/01/21 01:06:32;;;;;;;23.65;12.23;;;;;;;-3.75;61.72;100916.42;1731658;82;21116;-67
2021/01/21 01:09:01;;;;;;;21.20;13.78;;;;;;;-3.75;61.71;100914.73;1698700;82;21185;-66
2021/01/21 01:11:31;;;;;;;20.90;12.75;;;;;;;-3.76;61.79;100906.58;1714750;82;21651;-66
2021/01/21 01:14:00;;;;;;;23.22;11.97;;;;;;;-3.69;61.77;100912.50;1713455;83;21230;-66
2021/01/21 01:16:28;;;;;;;21.25;13.05;;;;;;;-3.63;61.66;100909.86;1760262;80;21176;-66
2021/01/21 01:19:00;;;;;;;23.50;13.55;;;;;;;-3.63;61.61;100908.98;1769826;80;21161;-66
2021/01/21 01:21:30;;;;;;;17.85;11.90;;;;;;;-3.62;61.61;100906.40;1784969;79;21287;-68
2021/01/21 01:23:58;;;;;;;25.97;13.78;;;;;;;-3.62;61.61;100910.70;1757054;80;21150;-66
2021/01/21 01:26:27;;;;;;;21.97;12.18;;;;;;;-3.61;61.67;100904.25;1771025;79;21129;-66
2021/01/21 01:28:56;;;;;;;23.27;12.23;;;;;;;-3.55;61.68;100902.90;1710284;82;21573;-66
2021/01/21 01:31:26;;;;;;;22.10;11.75;;;;;;;-3.50;61.54;100904.09;1780639;79;21193;-66
2021/01/21 01:33:54;;;;;;;27.42;14.13;;;;;;;-3.47;61.40;100900.65;1758625;80;21215;-67
2021/01/21 01:36:23;;;;;;;30.40;13.58;;;;;;;-3.47;61.50;100894.22;1758264;80;21196;-66
2021/01/21 01:38:51;;;;;;;20.43;12.68;;;;;;;-3.48;61.48;100896.36;1784922;79;21115;-66
2021/01/21 01:41:45;;;;;;;25.17;13.93;;;;;;;-3.46;61.59;100895.89;1756222;79;22281;-66
2021/01/21 01:44:13;;;;;;;25.23;13.15;;;;;;;-3.51;61.66;100885.69;1729619;82;21121;-67
2021/01/21 01:46:40;;;;;;;29.55;13.98;;;;;;;-3.50;61.77;100890.39;1705140;82;22211;-67
2021/01/21 01:49:10;;;;;;;22.95;12.40;;;;;;;-3.46;61.74;100877.89;1724479;82;21171;-66
2021/01/21 01:51:42;;;;;;;19.32;11.97;;;;;;;-3.44;61.66;100881.31;1682664;82;21172;-66
2021/01/21 01:54:08;;;;;;;24.18;12.98;;;;;;;-3.44;61.74;100873.59;1704529;82;21204;-67
2021/01/21 01:56:37;;;;;;;21.12;11.75;;;;;;;-3.42;61.75;100875.70;1736548;82;21600;-67
2021/01/21 01:59:15;;;;;;;20.72;11.45;;;;;;;-3.40;61.80;100879.94;1801257;77;22800;-67
2021/01/21 02:01:45;;;;;;;23.35;12.53;;;;;;;-3.44;61.87;100880.87;1771727;79;21176;-67
2021/01/21 02:04:15;;;;;;;19.60;11.68;;;;;;;-3.42;61.87;100879.56;1729129;80;21959;-67
2021/01/21 02:07:01;;;;;;;19.47;12.33;;;;;;;-3.43;61.98;100876.56;1750422;79;21041;-66
2021/01/21 02:09:29;;;;;;;23.67;12.45;;;;;;;-3.42;62.08;100865.41;1717258;82;21388;-66
2021/01/21 02:12:41;;;;;;;18.62;12.30;;;;;;;-3.40;62.10;100867.07;1716500;82;21237;-67
2021/01/21 02:15:46;;;;;;;21.80;12.13;;;;;;;-3.40;62.15;100852.91;1709330;81;21148;-67
2021/01/21 02:18:35;;;;;;;20.97;12.60;;;;;;;-3.41;62.26;100847.83;1703822;81;21213;-67
2021/01/21 02:21:46;;;;;;;16.55;9.90;;;;;;;-3.45;62.49;100844.86;1707842;83;21204;-67
2021/01/21 02:25:04;;;;;;;24.77;12.95;;;;;;;-3.49;62.60;100838.92;1717538;83;21184;-67
2021/01/21 02:27:58;;;;;;;28.47;13.35;;;;;;;-3.51;62.83;100852.66;1702862;82;21612;-67
2021/01/21 02:30:47;;;;;;;24.18;12.00;;;;;;;-3.53;62.99;100850.14;1704033;81;21183;-66
2021/01/21 02:33:53;;;;;;;24.37;14.18;;;;;;;-3.53;63.16;100842.42;1718070;81;22307;-67
2021/01/21 02:36:39;;;;;;;23.67;12.23;;;;;;;-3.48;63.22;100844.48;1687268;83;21191;-66
2021/01/21 02:39:10;;;;;;;22.02;10.75;;;;;;;-3.47;63.26;100846.62;1736111;80;21192;-69
2021/01/21 02:41:38;;;;;;;19.32;12.30;;;;;;;-3.48;63.29;100836.77;1684014;81;21235;-69
2021/01/21 02:44:09;;;;;;;29.65;12.95;;;;;;;-3.48;63.32;100848.34;1724622;81;21174;-68
2021/01/21 02:46:38;;;;;;;21.70;12.70;;;;;;;-3.50;63.39;100851.36;1739930;81;21631;-67
2021/01/21 02:49:06;;;;;;;21.42;11.93;;;;;;;-3.48;63.49;100843.62;1694433;84;21236;-68
2021/01/21 02:52:01;;;;;;;21.02;12.78;;;;;;;-3.46;63.49;100840.58;1687726;82;21167;-68
2021/01/21 02:54:56;;;;;;;21.82;12.13;;;;;;;-3.42;63.56;100839.23;1723221;81;21179;-68
2021/01/21 02:57:38;;;;;;;18.90;11.08;;;;;;;-3.39;63.46;100840.92;1738271;81;21183;-66
2021/01/21 03:00:08;;;;;;;21.30;11.97;;;;;;;-3.38;63.61;100842.19;1706091;82;21224;-66
2021/01/21 03:02:40;;;;;;;20.50;10.23;;;;;;;-3.34;63.49;100829.28;1742587;80;21124;-66
2021/01/21 03:05:09;;;;;;;23.77;13.25;;;;;;;-3.31;63.48;100831.37;1770998;80;21514;-67
2021/01/21 03:07:37;;;;;;;21.90;12.65;;;;;;;-3.27;63.48;100830.44;1769086;80;21416;-66
2021/01/21 03:10:09;;;;;;;25.32;13.22;;;;;;;-3.20;63.47;100835.05;1772009;79;21116;-67
2021/01/21 03:12:39;;;;;;;21.73;11.60;;;;;;;-3.15;63.30;100831.95;1736872;80;21220;-67
2021/01/21 03:15:10;;;;;;;22.30;13.45;;;;;;;-3.14;63.32;100836.25;1742312;79;21172;-66
2021/01/21 03:17:40;;;;;;;19.48;12.53;;;;;;;-3.11;63.25;100832.34;1769166;80;21206;-67
2021/01/21 03:20:14;;;;;;;22.00;12.25;;;;;;;-3.07;63.29;100839.57;1768670;79;21199;-67
2021/01/21 03:22:42;;;;;;;21.15;12.95;;;;;;;-3.08;63.21;100834.84;1774341;79;21180;-67
2021/01/21 03:25:11;;;;;;;22.35;13.03;;;;;;;-3.11;63.34;100825.91;1766933;79;21611;-67
2021/01/21 03:27:41;;;;;;;25.97;13.68;;;;;;;-3.07;63.40;100830.56;1721310;82;21137;-67
2021/01/21 03:30:11;;;;;;;20.68;11.75;;;;;;;-3.03;63.30;100821.45;1738404;79;21160;-67
2021/01/21 03:32:40;;;;;;;22.87;12.40;;;;;;;-2.99;63.25;100809.40;1766536;79;21179;-66
2021/01/21 03:35:09;;;;;;;22.32;12.18;;;;;;;-2.96;63.20;100817.05;1756232;79;21192;-67
2021/01/21 03:37:38;;;;;;;20.60;11.93;;;;;;;-2.95;63.17;100820.48;1760600;80;21367;-67
2021/01/21 03:40:09;;;;;;;20.45;12.28;;;;;;;-2.95;63.22;100830.34;1714378;79;21216;-66
2021/01/21 03:42:42;;;;;;;23.98;12.07;;;;;;;-2.93;63.25;100829.03;1767458;79;21216;-67
2021/01/21 03:45:20;;;;;;;23.98;13.13;;;;;;;-2.92;63.27;100824.30;1760509;79;22874;-69
2021/01/21 03:47:48;;;;;;;23.32;13.28;;;;;;;-2.98;63.37;100823.95;1727248;82;21081;-68
2021/01/21 03:50:18;;;;;;;22.37;13.10;;;;;;;-2.95;63.48;100830.34;1729003;82;21607;-69
2021/01/21 03:52:48;;;;;;;22.02;14.38;;;;;;;-2.94;63.51;100830.77;1710791;82;21595;-69
2021/01/21 03:55:22;;;;;;;25.97;14.15;;;;;;;-2.99;63.62;100835.98;1732449;82;21212;-69
2021/01/21 03:57:51;;;;;;;16.67;10.63;;;;;;;-3.00;63.82;100836.01;1697071;82;21224;-68
2021/01/21 04:00:33;;;;;;;20.82;13.40;;;;;;;-3.01;63.95;100833.01;1698229;82;21223;-70
2021/01/21 04:03:02;;;;;;;26.85;15.63;;;;;;;-3.08;64.17;100832.71;1735050;81;21363;-70
2021/01/21 04:05:49;;;;;;;24.45;13.62;;;;;;;-3.13;64.35;100831.94;1733963;82;21144;-69
2021/01/21 04:08:18;;;;;;;24.27;13.00;;;;;;;-3.14;64.54;100825.08;1731726;82;21128;-69
2021/01/21 04:10:47;;;;;;;29.92;13.00;;;;;;;-3.10;64.66;100821.59;1726847;81;21131;-69
2021/01/21 04:13:24;;;;;;;;;;;;;;;-3.06;64.60;100809.07;1867533;76;22017;-64
2021/01/21 04:15:52;;;;;;;23.00;13.20;;;;;;;-3.04;64.66;100818.92;1795340;77;20299;-69
2021/01/21 04:18:20;;;;;;;23.50;14.80;;;;;;;-3.04;64.78;100820.22;1833686;77;21147;-70
2021/01/21 04:31:39;;;;;;;24.12;12.58;;;;;;;-3.15;65.45;100819.09;1875382;75;23279;-69
2021/01/21 04:34:09;;;;;;;24.00;11.88;;;;;;;-3.25;65.55;100826.10;1780898;78;21191;-69
2021/01/21 04:36:40;;;;;;;19.37;11.45;;;;;;;-3.25;65.67;100832.53;1762987;80;21377;-72
2021/01/21 04:39:11;;;;;;;19.32;10.72;;;;;;;-3.22;65.73;100830.37;1744437;80;21195;-68
2021/01/21 04:41:40;;;;;;;28.87;14.40;;;;;;;-3.19;65.78;100831.16;1779349;78;21654;-65
2021/01/21 04:44:10;;;;;;;24.50;13.58;;;;;;;-3.13;65.71;100826.79;1800982;78;21125;-70
2021/01/21 04:46:48;;;;;;;27.65;13.35;;;;;;;-3.10;65.64;100829.31;1778548;78;21535;-67
2021/01/21 04:49:15;;;;;;;28.50;15.25;;;;;;;-3.12;65.73;100824.19;1767296;79;22056;-69
2021/01/21 04:51:45;;;;;;;25.55;13.50;;;;;;;-3.13;65.78;100814.76;1754739;79;21182;-65
2021/01/21 04:54:16;;;;;;;28.32;14.03;;;;;;;-3.10;65.83;100811.30;1737506;77;21179;-69
2021/01/21 04:56:49;;;;;;;22.45;13.90;;;;;;;-3.10;65.83;100808.27;1801459;77;21180;-69
2021/01/21 04:59:25;;;;;;;24.57;13.28;;;;;;;-3.09;65.89;100809.11;1781764;78;21172;-69
2021/01/21 05:01:55;;;;;;;28.27;13.30;;;;;;;-3.11;65.93;100806.59;1752400;80;21390;-66
2021/01/21 05:04:23;;;;;;;21.50;12.30;;;;;;;-3.10;66.00;100809.56;1813601;78;21350;-69
2021/01/21 05:06:53;;;;;;;24.02;13.30;;;;;;;-3.09;66.01;100819.00;1749565;79;21140;-69
2021/01/21 05:09:23;;;;;;;27.73;13.90;;;;;;;-3.07;66.00;100805.66;1808580;77;21161;-69
2021/01/21 05:11:52;;;;;;;20.20;12.95;;;;;;;-3.02;65.95;100804.30;1785438;78;21658;-66
2021/01/21 05:14:29;;;;;;;;;;;;;;;-2.91;65.83;100800.23;1808877;79;22589;-66
2021/01/21 05:17:08;;;;;;;25.48;13.38;;;;;;;-2.93;65.76;100805.86;1776040;80;20394;-66
2021/01/21 05:19:54;;;;;;;24.35;13.48;;;;;;;-2.97;65.92;100809.38;1772453;80;21168;-66
2021/01/21 05:22:37;;;;;;;27.30;13.70;;;;;;;-2.96;65.97;100816.20;1730395;80;21191;-64
2021/01/21 05:25:18;;;;;;;24.07;13.18;;;;;;;-2.95;65.95;100808.91;1703746;83;21194;-66
2021/01/21 05:28:00;;;;;;;20.30;12.18;;;;;;;-2.95;66.02;100808.45;1835015;76;22867;-63
2021/01/21 05:30:49;;;;;;;27.62;15.03;;;;;;;-2.94;66.08;100811.88;1827061;77;21164;-65
2021/01/21 05:33:21;;;;;;;22.13;12.88;;;;;;;-2.91;66.02;100815.23;1843246;77;21419;-66
2021/01/21 05:36:08;;;;;;;;;;;;;;;-2.81;65.97;100799.19;1862417;76;22186;-69
2021/01/21 05:38:57;;;;;;;20.85;13.05;;;;;;;-2.83;65.86;100813.37;1842917;76;20300;-67
2021/01/21 05:41:25;;;;;;;18.05;11.12;;;;;;;-2.84;65.95;100815.56;1834219;76;21614;-62
2021/01/21 05:44:06;;;;;;;26.57;14.13;;;;;;;-2.82;65.96;100821.53;1836247;76;21094;-69
2021/01/21 05:46:35;;;;;;;26.82;13.93;;;;;;;-2.76;65.90;100824.42;1811774;77;21187;-62
2021/01/21 05:49:03;;;;;;;29.65;13.93;;;;;;;-2.72;65.90;100831.66;1810033;77;21210;-62
2021/01/21 05:51:33;;;;;;;23.50;12.88;;;;;;;-2.70;65.84;100817.88;1843623;77;21199;-66
2021/01/21 05:54:03;;;;;;;21.33;12.40;;;;;;;-2.64;65.78;100822.06;1783032;77;21227;-65
2021/01/21 05:56:34;;;;;;;26.93;13.80;;;;;;;-2.63;65.71;100819.91;1800619;77;21203;-62
2021/01/21 05:59:15;;;;;;;28.20;14.25;;;;;;;-2.60;65.79;100812.12;1855343;76;22937;-60
2021/01/21 06:01:48;;;;;;;30.37;16.17;;;;;;;-2.57;65.75;100824.09;1845582;76;21116;-60
2021/01/21 06:04:17;;;;;;;26.33;14.20;;;;;;;-2.53;65.65;100821.43;1816939;77;21238;-60
2021/01/21 06:06:46;;;;;;;28.75;16.67;;;;;;;-2.53;65.68;100820.14;1810515;77;21227;-62
2021/01/21 06:09:17;;;;;;;28.32;16.23;;;;;;;-2.54;65.75;100827.90;1869083;75;21641;-62
2021/01/21 06:11:45;;;;;;;34.95;14.90;;;;;;;-2.53;65.76;100832.19;1825178;77;21382;-63
2021/01/21 06:14:12;;;;;;;30.12;15.53;;;;;;;-2.53;65.76;100838.18;1867300;75;21207;-62
2021/01/21 06:16:40;;;;;;;24.32;16.32;;;;;;;-2.51;65.88;100844.15;1845269;75;22420;-63
2021/01/21 06:19:08;;;;;;;25.75;14.20;;;;;;;-2.44;65.78;100839.31;1864545;76;21195;-61
2021/01/21 06:21:40;;;;;;;28.10;14.30;;;;;;;-2.41;65.69;100836.26;1828380;76;21175;-61
2021/01/21 06:24:17;;;;;;;32.30;17.80;;;;;;;-2.38;65.73;100821.58;1839361;74;27983;-60
2021/01/21 06:27:06;;;;;;;26.45;15.58;;;;;;;-2.16;65.39;100822.00;1880250;74;22746;-62
2021/01/21 06:29:34;;;;;;;25.15;14.85;;;;;;;-2.01;64.95;100836.77;1853292;76;21187;-63
2021/01/21 06:32:03;;;;;;;21.85;13.62;;;;;;;-2.02;64.91;100827.31;1857191;76;21214;-60
2021/01/21 06:34:35;;;;;;;25.97;13.03;;;;;;;-2.03;64.98;100813.58;1815605;77;21199;-61
2021/01/21 06:37:13;;;;;;;23.73;11.48;;;;;;;-1.99;64.78;100824.67;1844148;75;21207;-60
2021/01/21 06:40:10;;;;;;;30.95;14.83;;;;;;;-2.00;64.84;100829.41;1803796;77;21456;-63
2021/01/21 06:42:52;;;;;;;25.17;12.10;;;;;;;-2.04;64.90;100826.05;1853070;75;21147;-63
2021/01/21 06:45:21;;;;;;;27.05;12.43;;;;;;;-2.06;65.02;100822.22;1845081;76;21225;-60
2021/01/21 06:47:51;;;;;;;23.52;13.88;;;;;;;-2.08;65.17;100822.69;1814488;77;21072;-61
2021/01/21 06:50:29;;;;;;;25.12;12.68;;;;;;;-2.08;65.18;100822.69;1769257;76;21164;-68
2021/01/21 06:53:03;;;;;;;30.43;15.05;;;;;;;-2.03;65.21;100833.34;1830297;76;21206;-66
2021/01/21 06:55:35;;;;;;;21.42;11.00;;;;;;;-2.01;65.18;100829.86;1851444;76;21172;-67
2021/01/21 06:58:03;;;;;;;23.52;11.15;;;;;;;-2.00;65.20;100830.70;1771961;78;21373;-66
2021/01/21 07:00:37;;;;;;;26.75;13.18;;;;;;;-2.02;65.49;100835.05;1768299;79;21492;-65
2021/01/21 07:03:10;;;;;;;24.65;12.93;;;;;;;-2.03;65.46;100832.05;1777791;79;21186;-69
2021/01/21 07:05:45;;;;;;;25.85;14.20;;;;;;;-2.01;65.38;100835.02;1744993;78;21274;-67
2021/01/21 07:08:13;;;;;;;22.65;13.62;;;;;;;-2.01;65.47;100835.02;1769349;78;21238;-63
2021/01/21 07:10:49;;;;;;;24.25;12.88;;;;;;;-2.00;65.52;100830.70;1803522;78;21284;-60
2021/01/21 07:13:21;;;;;;;23.18;12.95;;;;;;;-1.94;65.49;100825.42;1776752;78;21582;-61
2021/01/21 07:16:00;;;;;;;21.20;12.23;;;;;;;-1.92;65.45;100822.36;1726320;79;21291;-63
2021/01/21 07:18:31;;;;;;;24.87;13.40;;;;;;;-1.91;65.45;100822.79;1748594;78;21139;-69
2021/01/21 07:21:10;;;;;;;24.18;11.63;;;;;;;-1.91;65.50;100819.76;1767368;79;21140;-61
2021/01/21 07:23:46;;;;;;;22.85;13.53;;;;;;;-1.90;65.62;100812.44;1777980;78;21394;-60
2021/01/21 07:26:34;;;;;;;21.90;14.03;;;;;;;-1.85;65.59;100814.05;1810905;77;21135;-61
2021/01/21 07:29:12;;;;;;;21.68;12.43;;;;;;;-1.80;65.57;100813.52;1783150;78;21396;-62
2021/01/21 07:32:04;;;;;;;24.05;13.28;;;;;;;-1.71;65.42;100821.06;1806879;77;21193;-62
2021/01/21 07:34:43;;;;;;;20.45;12.65;;;;;;;-1.63;65.42;100813.13;1782377;78;21590;-62
2021/01/21 07:37:37;;;;;;;21.73;12.43;;;;;;;-1.54;65.25;100816.81;1809593;77;21363;-61
2021/01/21 07:40:10;;;;;;;24.20;14.63;;;;;;;-1.46;65.06;100817.91;1776904;78;21209;-62
2021/01/21 07:42:44;;;;;;;23.80;13.40;;;;;;;-1.40;64.85;100819.91;1793284;78;21178;-62
2021/01/21 07:45:21;;;;;;;23.83;13.53;;;;;;;-1.34;64.80;100812.02;1783262;77;21217;-60
2021/01/21 07:47:50;;;;;;;20.00;10.95;;;;;;;-1.29;64.63;100814.92;1750245;80;21216;-61
2021/01/21 07:50:25;;;;;;;23.52;13.80;;;;;;;-1.26;64.60;100819.59;1777767;78;21203;-59
2021/01/21 07:52:54;;;;;;;24.02;13.38;;;;;;;-1.18;64.52;100811.23;1776373;78;21123;-62
2021/01/21 07:55:36;;;;;;;20.20;11.85;;;;;;;-1.13;64.36;100812.38;1806815;78;21261;-61
2021/01/21 08:01:14;;;;;;;26.12;14.93;;;;;;;-1.08;64.34;100797.61;1794708;77;22752;-60
2021/01/21 08:03:43;;;;;;;23.87;13.40;;;;;;;-1.12;64.31;100799.89;1766481;80;21199;-59
2021/01/21 08:06:19;;;;;;;24.07;14.43;;;;;;;-1.07;64.28;100804.95;1742428;80;21148;-60
2021/01/21 08:08:48;;;;;;;25.88;14.83;;;;;;;-1.02;64.25;100799.22;1764754;80;21058;-59
2021/01/21 08:11:21;;;;;;;27.77;14.78;;;;;;;-0.99;64.23;100797.85;1714961;80;21637;-60
2021/01/21 08:13:56;;;;;;;24.67;13.40;;;;;;;-0.94;64.14;100803.30;1731446;81;21594;-59
2021/01/21 08:16:24;;;;;;;19.98;12.80;;;;;;;-0.91;64.16;100794.59;1758784;80;21101;-60
2021/01/21 08:19:00;;;;;;;21.70;12.95;;;;;;;-0.89;64.17;100794.14;1740613;80;21177;-59
2021/01/21 08:21:29;;;;;;;;;;;;;;;-0.85;64.19;100791.87;1770819;80;21053;-60
2021/01/21 08:26:42;;;;;;;27.80;14.73;;;;;;;-0.75;64.20;100797.19;1832024;76;22691;-59
2021/01/21 08:29:11;;;;;;;20.00;12.30;;;;;;;-0.70;64.08;100788.03;1771651;79;21126;-60
2021/01/21 08:31:44;;;;;;;27.13;15.53;;;;;;;-0.63;64.00;100790.84;1803116;78;21523;-59
2021/01/21 08:34:19;;;;;;;24.37;12.65;;;;;;;-0.57;63.85;100793.28;1800482;79;21176;-58
2021/01/21 08:36:47;;;;;;;25.68;14.35;;;;;;;-0.51;63.59;100795.29;1769941;79;21686;-60
2021/01/21 08:39:15;;;;;;;24.57;13.45;;;;;;;-0.54;63.55;100790.20;1802181;79;21136;-61
2021/01/21 08:41:43;;;;;;;25.00;15.35;;;;;;;-0.54;63.72;100788.45;1797587;78;21457;-60
2021/01/21 08:44:16;;;;;;;23.38;12.23;;;;;;;-0.52;63.54;100791.87;1771770;78;21195;-62
2021/01/21 08:46:46;;;;;;;21.23;14.07;;;;;;;-0.47;63.53;100786.55;1806705;79;21145;-65
2021/01/21 08:49:15;;;;;;;32.28;15.30;;;;;;;-0.44;63.62;100782.59;1750679;79;21168;-60
2021/01/21 08:51:42;;;;;;;27.48;14.30;;;;;;;-0.44;63.52;100780.87;1712408;82;21614;-61
2021/01/21 08:54:18;;;;;;;23.42;14.45;;;;;;;-0.41;63.70;100775.59;1716368;81;21153;-59
2021/01/21 08:57:12;;;;;;;20.57;14.07;;;;;;;-0.37;63.64;100778.93;1799399;79;22305;-60
2021/01/21 08:59:40;;;;;;;27.80;13.85;;;;;;;-0.31;63.65;100786.52;1738759;82;21215;-61
2021/01/21 09:02:07;;;;;;;30.68;12.25;;;;;;;-0.25;63.45;100782.48;1735106;80;21179;-60
2021/01/21 09:04:36;;;;;;;28.98;13.78;;;;;;;-0.19;63.42;100775.81;1726885;82;21605;-61
2021/01/21 09:07:06;;;;;;;24.40;13.45;;;;;;;-0.11;63.49;100783.82;1766676;80;21203;-61
2021/01/21 09:09:41;;;;;;;25.97;13.78;;;;;;;-0.04;63.14;100784.03;1762548;80;21205;-65
2021/01/21 09:12:20;;;;;;;20.65;12.40;;;;;;;0.05;62.96;100781.19;1709863;80;21123;-64
2021/01/21 09:15:03;;;;;;;25.68;13.53;;;;;;;0.10;62.68;100791.38;1776654;80;21180;-63
2021/01/21 09:17:31;;;;;;;22.35;13.65;;;;;;;0.14;62.73;100778.30;1801833;79;21149;-68
2021/01/21 09:20:03;;;;;;;26.25;14.70;;;;;;;0.18;62.54;100776.04;1786691;79;21151;-61
2021/01/21 09:22:41;;;;;;;24.05;13.10;;;;;;;0.24;62.56;100778.88;1792429;79;21625;-65
2021/01/21 09:38:26;;;;;;;27.52;14.90;;;;;;;2.02;58.15;100762.80;1794238;76;22633;-60
2021/01/21 09:40:55;;;;;;;36.55;16.25;;;;;;;2.06;57.69;100757.49;1745308;79;21262;-60
2021/01/21 09:43:22;;;;;;;26.15;14.40;;;;;;;1.86;57.89;100748.25;1783815;78;21139;-61
2021/01/21 09:45:50;;;;;;;23.40;13.70;;;;;;;1.67;58.30;100753.75;1762790;79;21174;-62
2021/01/21 09:48:18;;;;;;;22.58;12.05;;;;;;;1.50;59.03;100751.78;1757531;78;21215;-60
2021/01/21 09:50:46;;;;;;;21.60;13.32;;;;;;;1.46;59.03;100752.34;1763567;79;21299;-62
2021/01/21 09:53:13;;;;;;;19.75;11.65;;;;;;;1.42;59.19;100758.98;1769558;78;21186;-62
2021/01/21 09:55:42;;;;;;;22.13;12.80;;;;;;;1.37;59.33;100754.42;1788519;78;21698;-62
2021/01/21 09:58:11;;;;;;;23.90;14.80;;;;;;;1.32;59.76;100753.73;1780347;78;21192;-60
2021/01/21 10:00:40;;;;;;;24.60;12.95;;;;;;;1.29;59.91;100751.66;1791397;78;21155;-64
2021/01/21 10:03:07;;;;;;;31.00;13.95;;;;;;;1.28;60.17;100751.71;1779908;78;21596;-62
2021/01/21 10:05:35;;;;;;;24.02;12.95;;;;;;;1.28;59.87;100752.55;1784562;78;21107;-63
2021/01/21 10:08:04;;;;;;;20.37;12.13;;;;;;;1.22;59.98;100755.34;1795485;78;22063;-63
2021/01/21 10:10:31;;;;;;;25.57;13.30;;;;;;;1.17;59.90;100751.23;1780519;78;21111;-63
2021/01/21 10:12:59;;;;;;;18.87;10.90;;;;;;;1.10;60.31;100752.73;1786089;78;21599;-63
2021/01/21 10:15:27;;;;;;;25.60;12.47;;;;;;;1.06;60.19;100744.69;1778398;78;21191;-65
2021/01/21 10:17:56;;;;;;;24.70;13.98;;;;;;;0.99;60.40;100735.41;1775325;78;21346;-65
2021/01/21 10:20:25;;;;;;;25.15;13.25;;;;;;;0.92;60.96;100733.94;1760326;78;21213;-62
2021/01/21 10:22:52;;;;;;;27.35;15.32;;;;;;;0.89;61.04;100736.20;1762647;78;21213;-63
2021/01/21 10:25:20;;;;;;;23.92;12.90;;;;;;;0.88;61.31;100742.27;1774505;78;21135;-62
2021/01/21 10:27:48;;;;;;;18.73;10.35;;;;;;;0.89;61.51;100736.20;1745699;78;21243;-64
2021/01/21 10:30:18;;;;;;;25.70;14.45;;;;;;;0.92;61.30;100739.98;1763264;78;21164;-64
2021/01/21 10:32:47;;;;;;;21.62;11.20;;;;;;;0.92;61.37;100733.52;1760113;78;21230;-63
2021/01/21 10:35:14;;;;;;;25.57;13.38;;;;;;;0.99;61.43;100742.34;1739074;78;21535;-62
2021/01/21 10:37:43;;;;;;;22.48;14.38;;;;;;;1.04;61.54;100728.34;1727324;80;21310;-62
2021/01/21 10:40:12;;;;;;;25.08;14.30;;;;;;;1.15;61.25;100723.23;1758450;78;21187;-63
2021/01/21 10:42:40;;;;;;;24.70;13.30;;;;;;;1.23;61.01;100727.70;1763099;78;21150;-65
2021/01/21 10:45:09;;;;;;;19.30;11.95;;;;;;;1.26;60.83;100715.89;1746865;78;21214;-63
2021/01/21 10:47:38;;;;;;;24.40;13.05;;;;;;;1.29;60.65;100703.70;1753311;78;21706;-63
2021/01/21 11:08:32;;;;;;;24.05;12.80;;;;;;;1.10;61.27;100677.58;1761745;78;23260;-68
2021/01/21 11:10:59;;;;;;;21.68;11.97;;;;;;;1.09;61.38;100696.64;1701249;81;21209;-69
2021/01/21 11:13:28;;;;;;;21.40;12.30;;;;;;;1.12;61.32;100685.30;1723850;80;21253;-69
2021/01/21 11:15:55;;;;;;;25.00;15.03;;;;;;;1.22;61.13;100678.04;1751288;80;21047;-70
2021/01/21 11:18:23;;;;;;;23.80;14.10;;;;;;;1.29;61.00;100679.06;1750598;80;21202;-67
2021/01/21 11:20:51;;;;;;;23.80;12.13;;;;;;;1.40;60.63;100682.55;1731274;81;21186;-68
2021/01/21 11:23:19;;;;;;;19.35;11.38;;;;;;;1.46;60.66;100681.03;1732708;81;21550;-68
2021/01/21 11:25:47;;;;;;;20.72;12.05;;;;;;;1.54;60.52;100682.48;1731667;81;22417;-69
2021/01/21 11:28:20;;;;;;;28.75;15.80;;;;;;;1.61;60.36;100682.64;1732309;81;21517;-69
2021/01/21 11:30:53;;;;;;;23.38;14.03;;;;;;;1.64;60.27;100670.39;1822482;74;22889;-68
2021/01/21 11:33:22;;;;;;;23.38;13.68;;;;;;;1.61;60.19;100678.75;1776986;78;21219;-67
2021/01/21 11:35:52;;;;;;;21.90;11.97;;;;;;;1.62;60.18;100672.20;1793753;79;21475;-67
2021/01/21 11:38:20;;;;;;;19.52;11.05;;;;;;;1.62;60.02;100673.50;1768393;79;21163;-69
2021/01/21 11:40:48;;;;;;;22.50;13.30;;;;;;;1.64;60.23;100670.85;1770976;79;21183;-67
2021/01/21 11:43:15;;;;;;;26.02;13.50;;;;;;;1.69;60.31;100662.91;1802532;79;21595;-68
2021/01/21 11:45:44;;;;;;;23.98;12.65;;;;;;;1.74;60.20;100659.21;1740900;80;21151;-69
2021/01/21 11:48:12;;;;;;;18.67;11.15;;;;;;;1.79;60.15;100658.58;1748224;81;21191;-69
2021/01/21 11:50:40;;;;;;;23.73;13.78;;;;;;;1.84;59.75;100655.35;1770498;79;21655;-66
2021/01/21 11:53:08;;;;;;;22.13;12.98;;;;;;;1.97;59.57;100662.20;1802670;79;21207;-67
2021/01/21 11:55:37;;;;;;;24.47;14.30;;;;;;;2.12;59.18;100652.97;1800202;79;21164;-68
2021/01/21 11:58:05;;;;;;;21.68;14.33;;;;;;;2.38;58.84;100657.06;1740693;81;21176;-67
2021/01/21 12:00:33;;;;;;;24.85;12.88;;;;;;;2.89;57.29;100652.77;1767363;80;21210;-67
2021/01/21 12:03:01;;;;;;;22.35;14.25;;;;;;;3.06;56.78;100647.69;1738305;80;21227;-63
2021/01/21 12:05:28;;;;;;;23.25;13.22;;;;;;;3.32;56.29;100649.56;1738143;80;21210;-71
2021/01/21 12:07:58;;;;;;;23.70;14.43;;;;;;;3.57;55.23;100647.14;1762106;80;21132;-63
2021/01/21 12:10:26;;;;;;;27.25;14.83;;;;;;;3.07;56.16;100653.26;1769948;80;21187;-66
2021/01/21 12:12:53;;;;;;;24.25;13.78;;;;;;;2.86;56.88;100660.70;1737922;81;21183;-67
2021/01/21 12:15:21;;;;;;;20.40;12.82;;;;;;;2.73;57.13;100650.84;1766545;80;21214;-67
2021/01/21 12:17:50;;;;;;;19.52;12.93;;;;;;;2.57;57.52;100659.77;1745572;80;21126;-69
2021/01/21 12:20:18;;;;;;;23.80;14.03;;;;;;;2.43;57.86;100656.88;1767005;80;21167;-67
2021/01/21 12:22:49;;;;;;;22.32;13.75;;;;;;;2.34;58.27;100659.41;1746787;80;21886;-70
2021/01/21 12:25:17;;;;;;;23.02;12.68;;;;;;;2.33;58.54;100660.31;1748553;81;21204;-67